Time;durP1;ratioP1;P1;durP2;ratioP2;P2;SDS_P1;SDS_P2;PMS_P1;PMS_P2;Temp;Humidity;BMP_temperature;BMP_pressure;BME280_temperature;BME280_humidity;BME280_pressure;Samples;Min_cycle;Max_cycle;Signal;HPM_P1;HPM_P2
2021/06/08 00:02:01;;;;;;;3.75;1.87;;;;;;;24.53;42.67;99093.66;1743303;80;21143;-36
2021/06/08 00:04:27;;;;;;;3.17;2.17;;;;;;;24.43;42.78;99083.83;1759046;80;20942;-36
2021/06/08 00:06:54;;;;;;;3.27;1.87;;;;;;;24.35;42.99;99081.05;1777509;80;20995;-35
2021/06/08 00:09:21;;;;;;;3.17;1.67;;;;;;;24.33;43.12;99083.06;1696331;81;21909;-36
2021/06/08 00:11:48;;;;;;;2.17;1.72;;;;;;;24.32;43.15;99081.36;1724452;81;21026;-36
2021/06/08 00:14:15;;;;;;;3.15;2.10;;;;;;;24.32;43.26;99071.95;1752373;80;21076;-36
2021/06/08 00:16:41;;;;;;;4.15;2.12;;;;;;;24.34;43.27;99071.29;1756946;80;22021;-35
2021/06/08 00:19:07;;;;;;;5.12;2.10;;;;;;;24.36;43.18;99075.17;1741918;80;20998;-35
2021/06/08 00:21:34;;;;;;;5.92;1.95;;;;;;;24.37;43.13;99076.88;1753628;80;21834;-35
2021/06/08 00:24:00;;;;;;;2.42;2.00;;;;;;;24.35;43.15;99072.16;1755898;80;21042;-35
2021/06/08 00:26:27;;;;;;;1.95;1.85;;;;;;;24.35;43.32;99072.98;1740746;80;21050;-35
2021/06/08 00:28:53;;;;;;;1.98;1.80;;;;;;;24.36;43.47;99070.66;1757220;80;21078;-36
2021/06/08 00:31:20;;;;;;;2.95;1.70;;;;;;;24.38;43.43;99064.63;1753524;80;21050;-36
2021/06/08 00:33:47;;;;;;;2.12;1.80;;;;;;;24.40;43.38;99068.00;1743716;81;22368;-35
2021/06/08 00:36:14;;;;;;;2.33;2.05;;;;;;;24.42;43.28;99070.54;1751003;80;21237;-36
2021/06/08 00:38:41;;;;;;;4.00;1.92;;;;;;;24.42;43.28;99071.88;1759552;80;20987;-36
2021/06/08 00:41:08;;;;;;;2.52;2.08;;;;;;;24.41;43.25;99072.39;1735434;81;21113;-35
2021/06/08 00:43:35;;;;;;;4.33;2.08;;;;;;;24.41;43.23;99069.70;1758166;80;21034;-35
2021/06/08 00:46:02;;;;;;;3.50;1.90;;;;;;;24.41;43.27;99069.70;1720501;81;21624;-36
2021/06/08 00:48:28;;;;;;;3.47;1.90;;;;;;;24.42;43.27;99068.69;1754032;80;21063;-35
2021/06/08 00:50:55;;;;;;;5.28;1.80;;;;;;;24.42;43.22;99060.62;1716823;82;21060;-35
2021/06/08 00:53:22;;;;;;;2.75;2.52;;;;;;;24.43;43.22;99069.05;1704114;81;21086;-36
2021/06/08 00:55:50;;;;;;;2.87;2.20;;;;;;;24.43;43.16;99065.02;1728423;81;21051;-35
2021/06/08 00:58:16;;;;;;;2.70;2.30;;;;;;;24.43;43.10;99068.20;1726216;81;21960;-35
2021/06/08 01:00:43;;;;;;;3.55;2.35;;;;;;;24.39;43.01;99063.61;1741873;80;20936;-37
2021/06/08 01:03:10;;;;;;;2.65;2.45;;;;;;;24.39;42.98;99074.36;1735396;80;21015;-36
2021/06/08 01:05:37;;;;;;;3.35;2.00;;;;;;;24.38;43.04;99071.34;1741860;80;21034;-36
2021/06/08 01:08:05;;;;;;;4.00;1.98;;;;;;;24.37;43.10;99075.53;1750675;81;21078;-37
2021/06/08 01:10:32;;;;;;;4.03;2.30;;;;;;;24.36;43.05;99065.77;1754428;80;21183;-37
2021/06/08 01:12:59;;;;;;;2.70;1.90;;;;;;;24.36;43.11;99072.00;1761104;80;21064;-37
2021/06/08 01:15:25;;;;;;;4.20;2.00;;;;;;;24.37;43.05;99066.12;1734869;81;21106;-37
2021/06/08 01:17:52;;;;;;;4.15;2.30;;;;;;;24.35;43.00;99075.67;1755420;80;21000;-36
2021/06/08 01:20:19;;;;;;;2.35;2.05;;;;;;;24.34;42.85;99078.52;1765391;80;21461;-36
2021/06/08 01:22:46;;;;;;;1.95;1.85;;;;;;;24.35;42.88;99078.87;1732528;81;21834;-37
2021/06/08 01:25:13;;;;;;;2.47;2.25;;;;;;;24.34;42.93;99083.39;1753624;80;20958;-36
2021/06/08 01:27:41;;;;;;;4.37;2.10;;;;;;;24.33;42.91;99083.06;1748626;80;21063;-36
2021/06/08 01:30:09;;;;;;;3.22;2.33;;;;;;;24.34;42.92;99081.20;1760813;80;22283;-37
2021/06/08 01:32:39;;;;;;;2.70;1.82;;;;;;;24.33;42.82;99080.38;1745221;80;21085;-36
2021/06/08 01:35:07;;;;;;;3.20;2.20;;;;;;;24.32;42.78;99084.05;1736496;81;21076;-36
2021/06/08 01:37:33;;;;;;;7.42;2.08;;;;;;;24.32;42.63;99087.23;1747597;80;21124;-37
2021/06/08 01:40:00;;;;;;;3.72;2.22;;;;;;;24.31;42.54;99095.81;1774374;80;21031;-37
2021/06/08 01:42:27;;;;;;;2.85;2.40;;;;;;;24.30;42.50;99097.63;1756948;80;21027;-37
2021/06/08 01:44:54;;;;;;;2.83;1.95;;;;;;;24.29;42.48;99101.81;1741476;80;21074;-37
2021/06/08 01:47:20;;;;;;;4.12;1.95;;;;;;;24.27;42.52;99099.78;1745750;80;21060;-36
2021/06/08 01:49:47;;;;;;;3.33;2.20;;;;;;;24.27;42.55;99099.78;1761907;80;21067;-36
2021/06/08 01:52:37;;;;;;;4.70;2.20;;;;;;;24.26;42.64;99102.14;1740771;80;21577;-36
2021/06/08 01:55:20;;;;;;;2.25;1.75;;;;;;;24.25;42.59;99100.44;1747877;80;20998;-36
2021/06/08 01:57:52;;;;;;;3.45;2.15;;;;;;;24.24;42.63;99098.27;1719397;81;22215;-37
2021/06/08 02:00:31;;;;;;;3.87;2.10;;;;;;;24.23;42.67;99104.63;1722857;81;21121;-36
2021/06/08 02:03:09;;;;;;;2.02;1.92;;;;;;;24.22;42.70;99102.08;1702456;82;21088;-36
2021/06/08 02:06:18;;;;;;;3.15;2.33;;;;;;;24.23;42.85;99101.09;1751294;80;21073;-36
2021/06/08 02:09:00;;;;;;;2.72;2.05;;;;;;;24.22;42.78;99094.02;1766218;79;21407;-36
2021/06/08 02:11:37;;;;;;;4.40;2.80;;;;;;;24.23;42.91;99101.09;1761426;80;21097;-37
2021/06/08 02:14:16;;;;;;;6.75;2.15;;;;;;;24.29;42.81;99100.47;1748023;80;21824;-36
2021/06/08 02:16:49;;;;;;;3.70;2.47;;;;;;;24.39;42.78;99098.56;1704496;82;21064;-36
2021/06/08 02:19:16;;;;;;;4.65;2.30;;;;;;;24.52;42.59;99095.51;1693024;82;21460;-36
2021/06/08 02:21:50;;;;;;;2.95;2.08;;;;;;;24.64;42.36;99102.37;1691528;82;21071;-36
2021/06/08 02:24:19;;;;;;;4.05;2.70;;;;;;;24.78;42.16;99095.63;1698847;82;21008;-36
2021/06/08 02:26:46;;;;;;;4.20;2.80;;;;;;;24.90;41.97;99100.75;1707419;81;21131;-36
2021/06/08 02:29:13;;;;;;;4.10;2.55;;;;;;;24.97;41.77;99099.16;1680732;82;21074;-36
2021/06/08 02:31:43;;;;;;;3.90;2.67;;;;;;;25.07;41.58;99099.91;1707222;82;21640;-37
2021/06/08 02:34:12;;;;;;;2.90;2.60;;;;;;;25.14;41.49;99099.61;1703899;82;21048;-36
2021/06/08 02:36:39;;;;;;;7.00;2.65;;;;;;;25.25;41.28;99097.66;1711203;82;21578;-37
2021/06/08 02:39:06;;;;;;;3.25;2.90;;;;;;;25.34;41.07;99106.19;1705529;82;21162;-37
2021/06/08 02:41:33;;;;;;;8.65;2.67;;;;;;;25.46;40.93;99110.30;1708856;82;21117;-36
2021/06/08 02:43:59;;;;;;;6.47;2.52;;;;;;;25.59;40.80;99110.72;1713053;83;21104;-36
2021/06/08 02:46:37;;;;;;;10.35;2.65;;;;;;;25.71;40.67;99107.75;1704826;82;21194;-37
2021/06/08 02:49:05;;;;;;;4.87;2.60;;;;;;;25.84;40.58;99101.91;1672018;82;21534;-36
2021/06/08 02:51:32;;;;;;;2.72;2.20;;;;;;;25.97;40.39;99106.89;1697873;82;21146;-37
2021/06/08 02:53:59;;;;;;;6.40;2.50;;;;;;;26.08;40.30;99106.61;1703160;82;21101;-37
2021/06/08 02:56:26;;;;;;;8.43;2.90;;;;;;;26.20;40.19;99110.68;1694731;82;21127;-37
2021/06/08 02:58:53;;;;;;;5.70;2.22;;;;;;;26.38;39.95;99117.80;1684478;82;21127;-37
2021/06/08 03:01:21;;;;;;;5.03;2.30;;;;;;;26.57;39.56;99120.22;1703514;82;21177;-37
2021/06/08 03:03:54;;;;;;;5.65;2.35;;;;;;;26.79;39.14;99121.45;1702800;82;21542;-37
2021/06/08 03:06:29;;;;;;;13.28;2.60;;;;;;;26.99;38.76;99118.44;1706538;82;21115;-36
2021/06/08 03:09:04;;;;;;;3.65;2.40;;;;;;;27.24;38.26;99123.33;1695649;82;21133;-36
2021/06/08 03:11:43;;;;;;;2.70;2.50;;;;;;;27.50;37.80;99112.33;1686989;81;21034;-36
2021/06/08 03:14:13;;;;;;;2.92;2.12;;;;;;;27.76;37.30;99108.05;1732263;81;21565;-37
2021/06/08 03:16:44;;;;;;;3.00;2.70;;;;;;;28.01;36.80;99101.23;1695305;81;22461;-37
2021/06/08 03:19:12;;;;;;;2.58;2.37;;;;;;;28.25;36.36;99107.55;1716155;81;21074;-37
2021/06/08 03:21:43;;;;;;;3.05;2.50;;;;;;;28.46;35.92;99110.47;1741363;81;21012;-37
2021/06/08 03:24:13;;;;;;;3.70;2.22;;;;;;;28.65;35.61;99111.89;1688414;81;21068;-37
2021/06/08 03:26:40;;;;;;;6.30;2.50;;;;;;;28.86;35.23;99115.80;1718715;81;21050;-37
2021/06/08 03:29:09;;;;;;;4.20;2.52;;;;;;;29.05;34.89;99117.16;1711626;81;21258;-37
2021/06/08 03:31:37;;;;;;;5.62;2.40;;;;;;;29.22;34.54;99120.62;1729560;81;21030;-37
2021/06/08 03:34:03;;;;;;;4.03;2.45;;;;;;;29.39;34.27;99118.60;1725665;81;22125;-36
2021/06/08 03:36:30;;;;;;;5.78;2.47;;;;;;;29.53;33.98;99123.70;1740545;81;21069;-37
2021/06/08 03:38:57;;;;;;;6.55;2.47;;;;;;;29.65;33.78;99118.97;1688138;82;21043;-37
2021/06/08 03:41:24;;;;;;;2.85;2.42;;;;;;;29.82;33.49;99121.54;1766450;80;21317;-37
2021/06/08 03:43:51;;;;;;;6.20;2.65;;;;;;;29.96;33.27;99115.28;1763662;79;21009;-37
2021/06/08 03:46:18;;;;;;;3.65;2.45;;;;;;;30.11;33.02;99119.83;1742041;79;21128;-37
2021/06/08 03:48:45;;;;;;;4.78;2.33;;;;;;;30.24;32.74;99124.07;1739293;80;21067;-37
2021/06/08 03:51:11;;;;;;;2.47;2.27;;;;;;;30.34;32.55;99124.61;1753002;80;21038;-37
2021/06/08 03:53:40;;;;;;;3.70;2.58;;;;;;;30.43;32.39;99125.88;1707464;80;21046;-36
2021/06/08 03:56:10;;;;;;;4.67;2.42;;;;;;;30.50;32.25;99119.51;1771731;80;21035;-36
2021/06/08 03:58:37;;;;;;;9.33;2.65;;;;;;;30.57;32.13;99120.94;1748688;80;21098;-36
2021/06/08 04:01:04;;;;;;;4.95;2.67;;;;;;;30.63;32.02;99118.83;1746200;80;21051;-36
2021/06/08 04:03:34;;;;;;;4.97;2.37;;;;;;;30.70;31.94;99119.73;1768776;80;21124;-35
2021/06/08 04:06:03;;;;;;;5.58;2.47;;;;;;;30.77;31.78;99120.32;1749443;80;21576;-37
2021/06/08 04:08:29;;;;;;;5.22;2.83;;;;;;;30.80;31.77;99122.63;1771802;80;21276;-37
2021/06/08 04:10:57;;;;;;;3.52;2.35;;;;;;;30.82;31.70;99133.63;1762835;80;21074;-37
2021/06/08 04:13:23;;;;;;;3.98;2.33;;;;;;;30.83;31.65;99135.82;1738958;80;21528;-37
2021/06/08 04:15:51;;;;;;;3.12;2.65;;;;;;;30.82;31.62;99130.08;1756334;80;21093;-37
2021/06/08 04:18:20;;;;;;;2.55;2.33;;;;;;;30.78;31.66;99132.84;1758633;80;21805;-38
2021/06/08 04:20:48;;;;;;;2.80;2.17;;;;;;;30.70;31.77;99134.66;1748735;80;21090;-38
2021/06/08 04:23:18;;;;;;;3.50;2.35;;;;;;;30.65;31.85;99143.05;1756438;80;21099;-84
2021/06/08 04:25:44;;;;;;;3.27;2.17;;;;;;;30.59;31.92;99137.88;1736578;80;21438;-37
2021/06/08 04:28:11;;;;;;;4.97;2.52;;;;;;;30.52;31.96;99136.44;1741956;81;21593;-37
2021/06/08 04:30:38;;;;;;;2.77;2.05;;;;;;;30.44;32.06;99130.30;1748650;80;22133;-37
2021/06/08 04:33:05;;;;;;;4.00;2.58;;;;;;;30.26;32.38;99132.89;1735565;81;21117;-38
2021/06/08 04:35:31;;;;;;;7.55;2.45;;;;;;;30.09;32.60;99134.11;1734253;80;21075;-35
2021/06/08 04:37:58;;;;;;;4.35;2.00;;;;;;;29.93;32.81;99134.64;1739382;80;21043;-35
2021/06/08 04:40:25;;;;;;;3.87;2.30;;;;;;;29.72;33.04;99133.98;1748568;80;21054;-36
2021/06/08 04:42:52;;;;;;;6.30;2.08;;;;;;;29.56;33.29;99135.02;1735532;80;21094;-35
2021/06/08 04:45:19;;;;;;;5.67;2.10;;;;;;;29.41;33.54;99143.12;1748240;80;21027;-36
2021/06/08 04:47:45;;;;;;;2.22;2.05;;;;;;;29.25;33.85;99141.42;1738312;81;21286;-36
2021/06/08 04:50:14;;;;;;;6.08;2.22;;;;;;;29.12;34.14;99143.88;1694192;82;21086;-35
2021/06/08 04:52:41;;;;;;;5.22;2.10;;;;;;;28.96;34.40;99137.22;1741452;82;21058;-36
2021/06/08 04:55:09;;;;;;;4.45;2.45;;;;;;;28.83;34.60;99137.33;1752292;81;21115;-35
2021/06/08 04:57:37;;;;;;;9.25;2.62;;;;;;;28.70;34.84;99131.14;1744292;80;21098;-40
2021/06/08 05:00:12;;;;;;;9.85;2.90;;;;;;;28.61;35.07;99134.91;1747720;80;21090;-40
2021/06/08 05:02:59;;;;;;;12.82;2.77;;;;;;;28.52;35.33;99135.45;1748314;80;21030;-40
2021/06/08 05:05:29;;;;;;;4.28;2.10;;;;;;;28.39;35.50;99140.59;1754912;80;21497;-40
2021/06/08 05:08:06;;;;;;;7.28;2.40;;;;;;;28.28;35.71;99134.25;1767757;80;21100;-40
2021/06/08 05:10:34;;;;;;;3.72;1.90;;;;;;;28.23;35.81;99135.29;1759585;80;21019;-40
2021/06/08 05:13:01;;;;;;;4.90;2.20;;;;;;;28.19;35.84;99136.64;1757446;81;22260;-40
2021/06/08 05:15:28;;;;;;;4.22;2.27;;;;;;;28.14;35.88;99133.97;1742594;80;21102;-40
2021/06/08 05:17:55;;;;;;;4.05;2.20;;;;;;;28.11;35.94;99141.08;1758434;80;21562;-40
2021/06/08 05:20:23;;;;;;;3.30;2.22;;;;;;;28.05;36.02;99147.17;1750269;81;21790;-40
2021/06/08 05:22:53;;;;;;;3.33;2.30;;;;;;;28.00;36.10;99141.45;1744317;80;21022;-40
2021/06/08 05:25:19;;;;;;;4.28;2.22;;;;;;;27.94;36.26;99140.79;1772320;79;21417;-40
2021/06/08 05:27:47;;;;;;;5.08;2.45;;;;;;;27.83;36.40;99139.80;1760972;79;21473;-40
2021/06/08 05:30:16;;;;;;;5.85;2.47;;;;;;;27.71;36.54;99142.86;1758789;79;21023;-40
2021/06/08 05:32:46;;;;;;;3.62;2.42;;;;;;;27.57;36.73;99153.02;1752787;80;21096;-40
2021/06/08 05:35:13;;;;;;;6.25;2.70;;;;;;;27.46;36.91;99144.77;1740183;80;20919;-40
2021/06/08 05:37:43;;;;;;;3.90;2.60;;;;;;;27.38;36.98;99155.06;1758826;80;21034;-40
2021/06/08 05:40:12;;;;;;;3.87;2.20;;;;;;;27.32;37.13;99152.20;1760413;80;21090;-40
2021/06/08 05:42:39;;;;;;;4.53;2.62;;;;;;;27.24;37.29;99157.92;1764491;80;21038;-40
2021/06/08 05:45:07;;;;;;;4.12;2.35;;;;;;;27.15;37.49;99154.03;1746611;80;21572;-40
2021/06/08 05:47:36;;;;;;;6.65;2.25;;;;;;;27.07;37.71;99150.84;1754194;80;21034;-40
2021/06/08 05:50:06;;;;;;;3.30;2.20;;;;;;;27.00;37.74;99152.02;1700260;81;21050;-41
2021/06/08 05:52:32;;;;;;;4.95;2.35;;;;;;;26.98;37.80;99151.84;1745389;80;20939;-41
2021/06/08 05:54:59;;;;;;;3.65;2.55;;;;;;;26.92;37.82;99156.06;1758349;79;21635;-41
2021/06/08 05:57:25;;;;;;;6.03;2.50;;;;;;;26.87;37.80;99159.25;1742325;79;21238;-41
2021/06/08 05:59:52;;;;;;;3.12;2.27;;;;;;;26.83;37.96;99153.00;1750701;80;21605;-41
2021/06/08 06:02:18;;;;;;;4.90;2.33;;;;;;;26.78;38.06;99149.47;1751590;80;21519;-41
2021/06/08 06:04:45;;;;;;;3.87;2.10;;;;;;;26.76;38.20;99151.98;1754146;80;21506;-41
2021/06/08 06:07:11;;;;;;;2.72;2.00;;;;;;;26.75;38.10;99157.03;1757284;79;21101;-41
2021/06/08 06:09:37;;;;;;;3.62;2.20;;;;;;;26.72;37.92;99158.73;1739678;80;21095;-40
2021/06/08 06:12:06;;;;;;;1.95;1.75;;;;;;;26.65;37.96;99148.59;1756289;80;21022;-41
2021/06/08 06:14:35;;;;;;;3.92;2.33;;;;;;;26.61;38.00;99158.02;1757704;79;21054;-42
2021/06/08 06:17:03;;;;;;;2.95;2.12;;;;;;;26.54;38.14;99152.91;1732455;81;21075;-42
2021/06/08 06:19:30;;;;;;;3.85;2.10;;;;;;;26.46;38.11;99148.36;1718170;82;21548;-41
2021/06/08 06:21:58;;;;;;;5.72;2.20;;;;;;;26.37;38.42;99141.23;1752174;80;21192;-41
2021/06/08 06:24:27;;;;;;;3.47;1.85;;;;;;;26.30;38.53;99141.05;1755167;80;21082;-41
2021/06/08 06:26:55;;;;;;;2.75;1.60;;;;;;;26.28;38.65;99136.33;1756529;81;21023;-41
2021/06/08 06:29:22;;;;;;;5.15;1.70;;;;;;;26.27;38.55;99137.84;1735644;81;21046;-41
2021/06/08 06:31:48;;;;;;;4.03;1.70;;;;;;;26.25;38.54;99139.86;1700790;81;21031;-41
2021/06/08 06:34:17;;;;;;;4.67;2.00;;;;;;;26.23;38.55;99137.84;1765950;79;22173;-41
2021/06/08 06:36:47;;;;;;;1.80;1.70;;;;;;;26.18;38.68;99136.97;1731904;80;21094;-41
2021/06/08 06:39:22;;;;;;;3.05;2.10;;;;;;;26.15;38.71;99137.29;1768344;80;21066;-41
2021/06/08 06:41:50;;;;;;;1.87;1.75;;;;;;;26.14;38.57;99130.20;1759571;80;21638;-42
2021/06/08 06:44:19;;;;;;;8.35;2.00;;;;;;;26.08;38.77;99128.17;1764810;80;21228;-41
2021/06/08 06:46:50;;;;;;;4.12;2.08;;;;;;;26.04;39.11;99132.18;1729303;81;21812;-41
2021/06/08 06:49:18;;;;;;;2.37;1.90;;;;;;;26.01;39.08;99130.67;1768569;79;21542;-40
2021/06/08 06:51:45;;;;;;;3.87;1.90;;;;;;;25.89;39.04;99135.47;1734927;80;21073;-40
2021/06/08 06:54:13;;;;;;;2.33;1.77;;;;;;;25.75;39.44;99135.55;1758006;80;21157;-40
2021/06/08 06:56:40;;;;;;;3.05;1.90;;;;;;;25.71;39.59;99133.35;1764236;80;21003;-40
2021/06/08 06:59:07;;;;;;;3.37;2.50;;;;;;;25.72;39.75;99133.67;1761621;79;21130;-40
2021/06/08 07:01:34;;;;;;;2.42;2.00;;;;;;;25.74;39.82;99134.39;1732258;81;21050;-41
2021/06/08 07:04:01;;;;;;;4.37;2.22;;;;;;;25.76;39.75;99141.80;1756062;79;21090;-40
2021/06/08 07:06:30;;;;;;;2.80;1.80;;;;;;;25.77;39.79;99139.43;1763103;80;21033;-40
2021/06/08 07:08:58;;;;;;;8.40;4.47;;;;;;;25.79;39.93;99137.44;1769298;79;22215;-38
2021/06/08 07:11:26;;;;;;;8.08;4.80;;;;;;;25.78;40.24;99138.44;1760519;79;21104;-38
2021/06/08 07:13:53;;;;;;;8.35;5.80;;;;;;;25.80;40.27;99135.07;1763257;80;21070;-37
2021/06/08 07:16:26;;;;;;;5.10;2.95;;;;;;;25.78;40.17;99131.19;1734487;80;21083;-37
2021/06/08 07:18:50;;;;;;;2.90;2.35;;;;;;;25.81;40.12;99135.42;1757617;80;20975;-37
2021/06/08 07:21:19;;;;;;;3.67;2.20;;;;;;;25.82;40.19;99134.91;1752674;80;21034;-37
2021/06/08 07:23:48;;;;;;;7.20;1.98;;;;;;;25.80;40.49;99133.72;1703737;81;21547;-38
2021/06/08 07:26:17;;;;;;;1.82;1.65;;;;;;;25.79;40.38;99133.41;1701130;81;21148;-37
2021/06/08 07:28:45;;;;;;;6.42;2.00;;;;;;;25.79;40.24;99134.75;1729644;81;21108;-38
2021/06/08 07:31:15;;;;;;;2.45;1.77;;;;;;;25.76;40.26;99131.86;1731523;81;21093;-38
2021/06/08 07:33:54;;;;;;;2.85;2.10;;;;;;;25.76;40.23;99134.55;1700625;81;22260;-38
2021/06/08 07:36:44;;;;;;;5.55;2.37;;;;;;;25.80;40.18;99135.07;1710505;81;21065;-38
2021/06/08 07:39:28;;;;;;;2.17;2.00;;;;;;;25.85;40.10;99141.34;1696447;82;22092;-38
2021/06/08 07:42:09;;;;;;;4.85;2.12;;;;;;;25.91;39.95;99128.57;1696557;81;21126;-38
2021/06/08 07:44:50;;;;;;;4.50;2.02;;;;;;;25.97;39.89;99128.45;1740583;81;21943;-39
2021/06/08 07:47:17;;;;;;;2.15;1.75;;;;;;;26.01;40.09;99131.16;1733987;81;21022;-37
2021/06/08 07:49:44;;;;;;;4.10;2.25;;;;;;;25.95;40.31;99129.45;1708468;81;21717;-36
2021/06/08 07:52:13;;;;;;;3.40;2.27;;;;;;;25.89;40.63;99134.60;1738639;81;21015;-36
2021/06/08 07:54:40;;;;;;;3.05;2.30;;;;;;;25.83;40.88;99138.80;1698536;82;21015;-37
2021/06/08 07:57:07;;;;;;;4.15;1.95;;;;;;;25.77;41.11;99134.91;1720319;81;21032;-36
2021/06/08 07:59:35;;;;;;;4.45;2.17;;;;;;;25.71;41.34;99132.00;1752627;81;21092;-36
2021/06/08 08:02:03;;;;;;;2.40;2.20;;;;;;;25.66;41.55;99135.17;1745603;81;21154;-36
2021/06/08 08:04:37;;;;;;;4.37;2.22;;;;;;;25.64;41.65;99136.31;1755802;81;20993;-37
2021/06/08 08:06:59;;;;;;;9.50;2.40;;;;;;;25.58;41.50;99136.47;1733696;81;21118;-37
2021/06/08 08:09:25;;;;;;;7.25;2.55;;;;;;;25.55;41.60;99142.16;1681216;81;21078;-37
2021/06/08 08:11:53;;;;;;;8.20;2.12;;;;;;;25.51;41.83;99138.95;1732172;81;21030;-37
2021/06/08 08:14:23;;;;;;;2.02;1.90;;;;;;;25.52;41.90;99136.61;1728522;81;22011;-37
2021/06/08 08:16:51;;;;;;;3.90;2.27;;;;;;;25.51;41.80;99139.45;1727068;81;21623;-37
2021/06/08 08:19:19;;;;;;;5.95;1.75;;;;;;;25.51;41.19;99137.59;1724578;81;21061;-37
2021/06/08 08:21:47;;;;;;;15.78;8.45;;;;;;;25.52;40.92;99139.30;1700283;82;21067;-38
2021/06/08 08:24:14;;;;;;;8.20;6.12;;;;;;;25.52;40.68;99145.17;1726859;81;21026;-40
2021/06/08 08:26:41;;;;;;;8.25;4.20;;;;;;;25.38;40.66;99143.39;1704389;82;21247;-38
2021/06/08 08:29:08;;;;;;;3.90;3.55;;;;;;;25.28;40.73;99136.42;1719293;81;21439;-37
2021/06/08 08:31:37;;;;;;;5.00;2.40;;;;;;;25.25;41.11;99138.05;1721800;81;21043;-39
2021/06/08 08:34:05;;;;;;;8.80;3.70;;;;;;;25.19;41.64;99142.22;1721963;81;21513;-44
2021/06/08 08:36:36;;;;;;;8.35;2.30;;;;;;;25.08;42.19;99147.34;1722683;81;21007;-49
2021/06/08 08:39:05;;;;;;;3.70;2.10;;;;;;;25.05;42.67;99146.33;1746476;81;21660;-47
2021/06/08 08:41:32;;;;;;;2.52;2.27;;;;;;;24.97;42.66;99144.91;1742489;81;21058;-48
2021/06/08 08:44:00;;;;;;;3.27;2.05;;;;;;;24.88;42.92;99148.03;1744930;81;21087;-48
2021/06/08 08:46:26;;;;;;;13.40;2.75;;;;;;;24.81;43.14;99143.76;1746940;81;21045;-51
2021/06/08 08:48:54;;;;;;;3.50;1.90;;;;;;;24.85;43.23;99139.75;1746754;81;21117;-52
2021/06/08 08:51:22;;;;;;;2.52;2.10;;;;;;;24.93;43.09;99130.92;1735858;81;21078;-50
2021/06/08 08:53:50;;;;;;;3.00;2.30;;;;;;;25.02;43.07;99135.86;1746596;81;21080;-40
2021/06/08 08:56:17;;;;;;;4.33;2.00;;;;;;;25.08;43.11;99133.88;1736480;81;21498;-38
2021/06/08 08:58:46;;;;;;;5.25;2.55;;;;;;;25.11;43.24;99133.56;1742189;81;21023;-39
2021/06/08 09:01:13;;;;;;;5.97;3.42;;;;;;;25.14;42.96;99133.27;1740837;81;21083;-38
2021/06/08 09:03:40;;;;;;;4.25;3.12;;;;;;;25.18;42.59;99134.66;1745344;80;21516;-39
2021/06/08 09:06:11;;;;;;;3.15;2.27;;;;;;;25.20;42.38;99128.61;1709406;81;21051;-38
2021/06/08 09:08:42;;;;;;;3.35;2.40;;;;;;;25.23;42.27;99122.05;1726293;81;21010;-38
2021/06/08 09:11:11;;;;;;;2.30;2.20;;;;;;;25.26;41.66;99124.95;1748612;81;21055;-40
2021/06/08 09:13:40;;;;;;;2.20;2.10;;;;;;;25.28;41.84;99114.88;1729362;80;21061;-41
2021/06/08 09:16:08;;;;;;;3.35;2.30;;;;;;;25.33;41.49;99109.87;1747699;80;21876;-40
2021/06/08 09:18:36;;;;;;;5.35;2.33;;;;;;;25.37;41.37;99110.75;1754079;80;21060;-37
2021/06/08 09:21:16;;;;;;;3.62;2.17;;;;;;;25.42;41.19;99115.67;1755068;80;21099;-39
2021/06/08 09:23:44;;;;;;;4.20;1.77;;;;;;;25.46;41.12;99115.69;1750964;80;21086;-37
2021/06/08 09:26:14;;;;;;;2.45;2.00;;;;;;;25.50;40.88;99109.00;1752553;80;22024;-36
2021/06/08 09:28:41;;;;;;;4.15;1.98;;;;;;;25.54;40.90;99113.55;1731212;80;21082;-37
2021/06/08 09:31:23;;;;;;;2.08;1.90;;;;;;;25.57;40.69;99115.42;1731736;81;21106;-38
2021/06/08 09:33:54;;;;;;;4.62;2.00;;;;;;;25.61;40.79;99107.03;1744900;80;21034;-36
2021/06/08 09:36:24;;;;;;;3.72;2.30;;;;;;;25.65;40.75;99097.61;1733295;81;22099;-38
2021/06/08 09:39:01;;;;;;;2.42;2.25;;;;;;;25.68;40.93;99097.30;1756843;80;21079;-37
2021/06/08 09:41:52;;;;;;;4.12;1.95;;;;;;;25.69;40.85;99098.48;1754946;80;22135;-38
2021/06/08 09:44:20;;;;;;;7.60;2.15;;;;;;;25.67;40.90;99102.33;1730577;81;21501;-37
2021/06/08 09:46:50;;;;;;;3.37;2.17;;;;;;;25.64;41.45;99106.69;1753379;80;21035;-37
2021/06/08 09:49:19;;;;;;;7.20;2.17;;;;;;;25.59;41.75;99105.33;1753908;80;21023;-36
2021/06/08 09:52:06;;;;;;;5.40;2.12;;;;;;;25.52;42.14;99108.80;1755698;80;21524;-39
2021/06/08 09:54:46;;;;;;;4.70;2.35;;;;;;;25.49;42.24;99099.72;1749939;80;21125;-36
2021/06/08 09:57:28;;;;;;;7.62;2.42;;;;;;;25.55;42.20;99100.41;1732916;80;21054;-39
2021/06/08 10:00:07;;;;;;;5.90;2.20;;;;;;;25.63;42.31;99086.16;1741782;80;21983;-39
2021/06/08 10:02:45;;;;;;;5.15;2.60;;;;;;;25.73;42.40;99089.06;1744532;80;21026;-38
2021/06/08 10:05:30;;;;;;;7.85;2.50;;;;;;;25.83;42.33;99093.50;1744946;80;21516;-39
2021/06/08 10:08:05;;;;;;;3.65;2.42;;;;;;;25.92;42.48;99093.37;1754410;80;22116;-39
2021/06/08 10:10:41;;;;;;;8.23;2.22;;;;;;;25.98;42.75;99087.02;1754686;80;28735;-36
2021/06/08 10:13:14;;;;;;;9.10;2.20;;;;;;;26.00;41.81;99087.70;1736288;81;21141;-37
2021/06/08 10:15:53;;;;;;;4.55;2.12;;;;;;;25.94;41.51;99084.62;1752465;80;22312;-37
2021/06/08 10:18:21;;;;;;;2.83;2.05;;;;;;;25.90;41.89;99080.54;1756316;80;21072;-37
2021/06/08 10:20:53;;;;;;;5.90;2.00;;;;;;;25.84;42.13;99086.59;1738700;80;21080;-37
2021/06/08 10:23:27;;;;;;;8.25;2.35;;;;;;;25.85;42.26;99082.88;1758697;79;21023;-40
2021/06/08 10:25:56;;;;;;;4.90;2.40;;;;;;;25.86;42.30;99072.97;1761090;80;28310;-38
2021/06/08 10:28:23;;;;;;;10.23;2.62;;;;;;;25.88;42.24;99067.73;1728123;80;21113;-36
2021/06/08 10:30:51;;;;;;;5.08;1.98;;;;;;;25.92;42.00;99072.30;1760146;79;21094;-35
2021/06/08 10:33:19;;;;;;;3.02;2.12;;;;;;;25.95;42.04;99066.10;1721550;80;22399;-37
2021/06/08 10:35:45;;;;;;;4.55;2.00;;;;;;;25.95;41.99;99064.75;1760834;79;21030;-38
2021/06/08 10:38:39;;;;;;;6.78;4.03;;;;;;;25.99;41.88;99061.26;1759462;80;22211;-39
2021/06/08 10:41:06;;;;;;;3.58;3.17;;;;;;;26.06;41.60;99066.33;1754237;79;21726;-39
2021/06/08 10:43:37;;;;;;;6.00;3.02;;;;;;;26.12;41.71;99064.30;1756870;79;21528;-38
2021/06/08 10:46:04;;;;;;;5.08;3.12;;;;;;;26.11;42.04;99080.16;1751055;80;21798;-44
2021/06/08 10:48:39;;;;;;;7.33;3.22;;;;;;;26.00;42.68;99070.18;1760048;79;21057;-40
2021/06/08 10:51:20;;;;;;;;;;;;;;;25.87;42.98;99076.84;1743933;79;21026;-41
2021/06/08 10:53:51;;;;;;;5.30;2.60;;;;;;;25.75;42.98;99074.08;1735684;80;20156;-40
2021/06/08 10:56:30;;;;;;;3.92;2.42;;;;;;;25.57;43.41;99068.77;1758543;79;21045;-40
2021/06/08 10:59:05;;;;;;;5.83;2.50;;;;;;;25.45;43.78;99056.08;1723637;80;21094;-40
2021/06/08 11:01:42;;;;;;;3.60;2.30;;;;;;;25.42;44.04;99053.73;1757860;79;21054;-41
2021/06/08 11:04:14;;;;;;;5.65;2.20;;;;;;;25.44;44.01;99055.75;1758353;80;21022;-40
2021/06/08 11:06:58;;;;;;;2.77;2.10;;;;;;;25.52;44.05;99057.63;1739157;80;21101;-41
2021/06/08 11:09:33;;;;;;;14.07;2.75;;;;;;;25.56;44.06;99055.80;1765566;79;21015;-39
2021/06/08 11:12:23;;;;;;;7.05;2.90;;;;;;;25.58;44.02;99062.38;1760320;79;21147;-42
2021/06/08 11:14:55;;;;;;;7.42;2.12;;;;;;;25.63;44.00;99064.60;1742284;80;21108;-39
2021/06/08 11:17:33;;;;;;;3.72;2.12;;;;;;;25.70;43.90;99074.55;1726431;81;21168;-42
2021/06/08 11:20:15;;;;;;;2.83;2.20;;;;;;;25.76;43.82;99073.09;1743690;81;21059;-37
2021/06/08 11:22:58;;;;;;;4.33;2.25;;;;;;;25.80;43.79;99075.78;1740471;81;21533;-40
2021/06/08 11:25:38;;;;;;;5.62;2.20;;;;;;;25.84;43.51;99073.13;1746303;81;21059;-40
2021/06/08 11:28:07;;;;;;;5.37;2.08;;;;;;;25.86;43.00;99068.41;1742681;81;21018;-40
2021/06/08 11:30:37;;;;;;;9.00;2.33;;;;;;;25.87;42.81;99072.80;1732696;81;21058;-38
2021/06/08 11:33:13;;;;;;;10.18;2.72;;;;;;;25.82;42.77;99065.68;1714745;82;21126;-38
2021/06/08 11:35:42;;;;;;;6.33;2.35;;;;;;;25.77;42.58;99058.59;1690220;82;21030;-38
2021/06/08 11:38:16;;;;;;;33.88;23.73;;;;;;;25.73;42.99;99049.98;1734141;81;21049;-39
2021/06/08 11:43:41;;;;;;;10.65;5.55;;;;;;;25.72;42.44;99041.58;1741314;81;21376;-39
2021/06/08 11:46:18;;;;;;;4.17;3.77;;;;;;;25.70;42.38;99048.13;1744951;81;21007;-39
2021/06/08 11:49:09;;;;;;;7.65;3.40;;;;;;;25.70;41.96;99050.82;1748051;81;21030;-41
2021/06/08 11:51:42;;;;;;;3.45;2.85;;;;;;;25.67;41.72;99041.70;1743273;81;21275;-39